Skip Navigation Links
NOAA logo - Click to go to the NOAA homepage
NOAA's National Weather Service
Alaska Aviation Weather Unit
  NWS logo - Click to go to the NWS homepage
Left Navbar Graphic     03 AKDT = 11 GMT

   
NOAA is celebrating 200 years of science, service, and stewardship. Visit the NOAA 200th celebration Web site to learn more.
USA.gov is the U.S. Government's official Web portal to all Federal, state and local government Web resources and services.
Facebook
NWS on Facebook

AAWU Home :: Display TAF Add Bookmark
TAF PAKT 290910Z 2909/3006 00000KT 4SM BR VCSH SCT008 OVC025
      TEMPO 2909/2910 1SM -SHRA BR BKN008 OVC025
     FM291000 14010KT 6SM -SHRA OVC010
     FM300300 VRB04KT P6SM VCSH SCT008 OVC025 AMD LTD TO CLD VIS
      AND WIND TIL 291500=

PAKT 290521Z AUTO 13007KT 4SM BR FEW008 SCT021 OVC028 05/05 A2988= SPECI PAKT 290538Z AUTO 14007KT 6SM BR BKN008 BKN025 OVC030 05/05 A2989 RMK AO2 T00500050 TSNO $= METAR PAKT 290553Z AUTO 15006KT FEW004 OVC008 05/05 A2989= PAKT 290609Z AUTO 14006KT 9SM -RA BKN004 OVC011 04/04 A2989= SPECI PAKT 290620Z AUTO 15006KT 10SM SCT004 BKN013 OVC031 04/04 A2989 RMK AO2 RAB01E16 P0000 T00440044 TSNO $= METAR PAKT 290653Z AUTO 19003KT 10SM -RA OVC012 04/04 A2989= SPECI PAKT 290716Z AUTO 15004KT 10SM SCT005 BKN014 OVC023 04/04 A2990 RMK AO2 RAE0655 P0000 T00440044 TSNO $= PAKT 290726Z AUTO 15004KT -RA BKN005 OVC015 04/04 A2989= SPECI PAKT 290742Z AUTO 16004KT 10SM OVC004 04/04 A2989 RMK AO2 RAE0655B23E37 P0000 T00440044 TSNO $= METAR PAKT 290753Z AUTO 16004KT 10SM -RA BKN004 OVC014 04/04 A2989= PAKT 290823Z AUTO 17004KT 2SM BR BKN003 OVC011 04/04 A2989= PAKT 290828Z AUTO 17004KT 3SM -RA BR SCT003 BKN010 OVC033 04/04 A2989 RMK AO2 RAE0758B25 P0000 T00390039 TSNO $= PAKT 290842Z AUTO 00000KT 1 3/4SM R11/6000VP6000FT -RA BR FEW003 BKN012 OVC031 04/04 A2989= PAKT 290851Z AUTO 18003KT 2SM R11/5500VP6000FT BR SCT012 OVC031 04/04 A2989= METAR PAKT 290853Z AUTO 00000KT 2SM BR FEW012 SCT018 OVC031 04/04 A2989= PAKT 290857Z AUTO 00000KT 2SM R11/6000VP6000FT BR FEW004 BKN016 OVC031 04/04 A2989= PAKT 290903Z AUTO 00000KT 1 1/4SM R11/4500VP6000FT BR BKN010 BKN016 OVC031 04/04 A2989= PAKT 290919Z AUTO 00000KT 3SM -RA BR OVC010 04/04 A2989= PAKT 290935Z AUTO 11003KT 5SM -RA BR SCT004 OVC011 04/04 A2988= PAKT 290945Z AUTO 00000KT 8SM -RA BKN004 OVC010 04/04 A2988= METAR PAKT 290953Z AUTO 00000KT 6SM -RA BR BKN004 OVC008 04/04 A2987= PAKT 291029Z AUTO 00000KT 2 1/2SM R11/5000VP6000FT -RA BR OVC005 04/04 A2986= PAKT 291037Z AUTO 18003KT 1 1/4SM R11/5000VP6000FT BR OVC005 04/04 A2986= METAR PAKT 291053Z AUTO 15004KT 1SM R11/3500VP6000FT BR OVC006 04/04 A2986 RMK AO2 RAE31 SLP111 P0002 T00390039 TSNO $=
 Alaska TAF Map

NOAA's National Weather Service
Alaska Aviation Weather Unit
6930 Sand Lake Road
Anchorage, AK 99502-1845
Disclaimer
Credits
Glossary
Privacy Policy
About Us
Career Opportunities
Contact AAWU Internet Services Site last modified: April, 17th 2012